Bordersville, Texas
Current Conditions -  °F | °C
As of 12:53 PM on Friday 28 Nov 2014 (Local Time) from KIAH Reporting Station
Broken Clouds Broken Clouds  
Wind Chill: 70°   Ceiling: 4900
Heat Index: 70°   Visibility: 10mi
Dew Point: 54°   Wind: 10mph
Humidity: 57%   Direction: 160°SSE
Pressure: 30.24"   Gusts: NA
Location:  30.0245°N, 95.2914°W
Report Text: KIAH 281853Z 16009KT 10SM BKN049 BKN120 21/12 A3024 RMK AO2 SLP240 T02110122
Loading
Personal Weather Stations






























Interactive Weather Map New forecast layout! Learn more

10-Day Weather Forecast

Advertisements
Track Severe Weather on mobile